Wolgastern — CQLH — position and weather

sailwx.info

Track history (hours):
 
Tides and Currents Weather Stations Pressure Air Temp Water Temp Dewpoint Dewpoint Depression Visibility Wind Speed Wind Dir Waves Ship Positions

Wolgastern

Last reported at 2015-Sep-01 03:33 UTC. Time now 2015-Sep-02 08:36 UTC.
Position N 60°03' E 027°21'.

Length 162 m; draft 6.6 m.

Type: Ship. MMSI: 255804950.

Date/timePositionNaut miles runAvg speedWind from/ knotsBaromVisibWave heightAir tempDewpointWater temp
2015-Sep-01 03:33N 60°03' E 027°21'1612.7
2015-Sep-01 02:19N 59°59' E 026°50'1013.3
2015-Sep-01 01:32N 59°58' E 026°30'4213.6
2015-Aug-31 22:27N 59°48' E 025°08'1213.4
2015-Aug-31 21:33N 59°46' E 024°45'1313.2
2015-Aug-31 20:34N 59°43' E 024°20'1313.3
2015-Aug-31 19:33N 59°38' E 023°55'1313.2
2015-Aug-31 18:33N 59°34' E 023°30'3313.5
2015-Aug-31 16:06N 59°22' E 022°29'713.6
2015-Aug-31 15:33N 59°18' E 022°17'18213.5
2015-Aug-31 02:09N 56°44' E 019°15'813.5
2015-Aug-31 01:32N 56°37' E 019°08'1313.5
2015-Aug-31 00:33N 56°25' E 018°56'1313.1
2015-Aug-30 23:33N 56°16' E 018°40'1313.6
2015-Aug-30 22:33N 56°08' E 018°20'1413.6
2015-Aug-30 21:34N 56°01' E 017°59'1313.4
2015-Aug-30 20:34N 55°54' E 017°39'1313.5
2015-Aug-30 19:33N 55°51' E 017°15'1413.6
2015-Aug-30 18:33N 55°48' E 016°52'1613.5
2015-Aug-30 17:24N 55°44' E 016°25'1113.3
2015-Aug-30 16:32N 55°42' E 016°05'1413.4
2015-Aug-30 15:30N 55°38' E 015°41'1313.4
2015-Aug-30 14:34N 55°34' E 015°20'1313.3
2015-Aug-30 13:33N 55°29' E 014°58'1313.4
2015-Aug-30 12:34N 55°23' E 014°37'1413.5
2015-Aug-30 11:34N 55°12' E 014°23'1313.4
2015-Aug-30 10:34N 55°02' E 014°07'1313.1
2015-Aug-30 09:34N 54°57' E 013°46'1313.0
2015-Aug-30 08:34N 54°53' E 013°25'1313.2
2015-Aug-30 07:33N 54°49' E 013°03'1313.2
2015-Aug-30 06:34N 54°44' E 012°42'1413.8
2015-Aug-30 05:33N 54°36' E 012°22'1313.1
2015-Aug-30 04:33N 54°25' E 012°11'1313.5
2015-Aug-30 03:33N 54°24' E 011°48'1414.0
2015-Aug-30 02:34N 54°30' E 011°26'1313.5
2015-Aug-30 01:34N 54°35' E 011°04'1413.9
2015-Aug-30 00:34N 54°34' E 010°40'1313.2
2015-Aug-29 23:34N 54°30' E 010°19'10 9.6
2015-Aug-29 22:34N 54°22' E 010°09'1 1.2
2015-Aug-29 21:34N 54°22' E 010°07'7 7.2
2015-Aug-29 20:34N 54°21' E 009°55'6 5.6
2015-Aug-29 19:34N 54°21' E 009°45'7 6.7
2015-Aug-29 18:34N 54°16' E 009°37'7 7.5
2015-Aug-29 17:34N 54°11' E 009°28'8 7.5
2015-Aug-29 16:31N 54°05' E 009°19'8 8.1
2015-Aug-29 15:33N 53°57' E 009°15'5 5.1
2015-Aug-29 14:33N 53°54' E 009°09'1 1.2
2015-Aug-29 13:33N 53°53' E 009°07'1 0.9
2015-Aug-29 12:34N 53°53' E 009°05'0 0.0
2015-Aug-29 11:34N 53°53' E 009°05'0 0.0
2015-Aug-29 10:34N 53°53' E 009°05'0 0.0
2015-Aug-29 09:33N 53°53' E 009°05'0 0.1
2015-Aug-29 08:33N 53°53' E 009°05'0 0.1
2015-Aug-29 07:34N 53°53' E 009°05'0 0.0
2015-Aug-29 06:33N 53°53' E 009°05'5 4.6
2015-Aug-29 05:34N 53°51' E 008°58'8 8.5
2015-Aug-29 04:34N 53°52' E 008°44'9 9.0
2015-Aug-29 03:34N 53°58' E 008°33'1111.3
2015-Aug-29 02:34N 53°60' E 008°14'1211.8
2015-Aug-29 01:34N 53°57' E 007°54'1312.5
2015-Aug-29 00:33N 53°55' E 007°33'1312.9
2015-Aug-28 23:33N 53°52' E 007°12'1413.4
2015-Aug-28 22:32N 53°49' E 006°49'1413.8
2015-Aug-28 21:32N 53°46' E 006°26'1414.1
2015-Aug-28 20:33N 53°42' E 006°04'1414.4
2015-Aug-28 19:33N 53°37' E 005°41'1514.7
2015-Aug-28 18:34N 53°32' E 005°18'1515.2
2015-Aug-28 17:34N 53°28' E 004°53'1414.2
2015-Aug-28 16:33N 53°17' E 004°37'3215.4
2015-Aug-28 14:26N 52°49' E 004°11'1314.5
2015-Aug-28 13:33N 52°40' E 003°55'3314.3
2015-Aug-28 11:15N 52°12' E 003°28'1014.4
2015-Aug-28 10:33N 52°02' E 003°25'1313.4
2015-Aug-28 09:33N 51°49' E 003°17'1310.9
2015-Aug-28 08:21N 51°37' E 003°22'810.6
2015-Aug-28 07:33N 51°30' E 003°29'10 9.8
2015-Aug-28 06:34N 51°25' E 003°43'2 2.1
2015-Aug-28 05:34N 51°24' E 003°46'0 0.0
2015-Aug-28 04:34N 51°24' E 003°46'0 0.0
2015-Aug-28 03:34N 51°24' E 003°46'0 0.0
2015-Aug-28 02:34N 51°24' E 003°46'1 0.7
2015-Aug-28 01:34N 51°24' E 003°45'6 6.3
2015-Aug-28 00:34N 51°22' E 003°54'6 5.9
2015-Aug-27 23:34N 51°22' E 004°04'8 8.3
2015-Aug-27 22:34N 51°21' E 004°17'0 0.4
2015-Aug-27 21:33N 51°21' E 004°17'4 4.0
2015-Aug-27 20:33N 51°17' E 004°20'  
2015-Aug-25 16:31N 51°17' E 004°20'3 3.5
2015-Aug-25 15:34N 51°20' E 004°18'1 0.5
2015-Aug-25 14:34N 51°21' E 004°17'2 2.2
2015-Aug-25 13:34N 51°21' E 004°14'7 6.9
2015-Aug-25 12:34N 51°23' E 004°03'5 4.7
2015-Aug-25 11:33N 51°22' E 003°55'8 8.3
2015-Aug-25 10:34N 51°24' E 003°42'8 7.8
2015-Aug-25 09:34N 51°27' E 003°31'10 9.7
2015-Aug-25 08:34N 51°36' E 003°23'422 9.8
2015-Aug-23 13:33N 58°37' E 004°02'1110.7
2015-Aug-23 12:33N 58°47' E 004°01'  
Track history (hours):
 
Tides and Currents Weather Stations Pressure Air Temp Water Temp Dewpoint Dewpoint Depression Visibility Wind Speed Wind Dir Waves Ship Positions

Wolgastern

Last reported at 2015-Sep-01 03:33 UTC. Time now 2015-Sep-02 08:36 UTC.
Position N 60°03' E 027°21'.

Length 162 m; draft 6.6 m.

Type: Ship. MMSI: 255804950.

Date/timePositionNaut miles runAvg speedWind from/ knotsBaromVisibWave heightAir tempDewpointWater temp
2015-Sep-01 03:33N 60°03' E 027°21'1612.7
2015-Sep-01 02:19N 59°59' E 026°50'1013.3
2015-Sep-01 01:32N 59°58' E 026°30'4213.6
2015-Aug-31 22:27N 59°48' E 025°08'1213.4
2015-Aug-31 21:33N 59°46' E 024°45'1313.2
2015-Aug-31 20:34N 59°43' E 024°20'1313.3
2015-Aug-31 19:33N 59°38' E 023°55'1313.2
2015-Aug-31 18:33N 59°34' E 023°30'3313.5
2015-Aug-31 16:06N 59°22' E 022°29'713.6
2015-Aug-31 15:33N 59°18' E 022°17'18213.5
2015-Aug-31 02:09N 56°44' E 019°15'813.5
2015-Aug-31 01:32N 56°37' E 019°08'1313.5
2015-Aug-31 00:33N 56°25' E 018°56'1313.1
2015-Aug-30 23:33N 56°16' E 018°40'1313.6
2015-Aug-30 22:33N 56°08' E 018°20'1413.6
2015-Aug-30 21:34N 56°01' E 017°59'1313.4
2015-Aug-30 20:34N 55°54' E 017°39'1313.5
2015-Aug-30 19:33N 55°51' E 017°15'1413.6
2015-Aug-30 18:33N 55°48' E 016°52'1613.5
2015-Aug-30 17:24N 55°44' E 016°25'1113.3
2015-Aug-30 16:32N 55°42' E 016°05'1413.4
2015-Aug-30 15:30N 55°38' E 015°41'1313.4
2015-Aug-30 14:34N 55°34' E 015°20'1313.3
2015-Aug-30 13:33N 55°29' E 014°58'1313.4
2015-Aug-30 12:34N 55°23' E 014°37'1413.5
2015-Aug-30 11:34N 55°12' E 014°23'1313.4
2015-Aug-30 10:34N 55°02' E 014°07'1313.1
2015-Aug-30 09:34N 54°57' E 013°46'1313.0
2015-Aug-30 08:34N 54°53' E 013°25'1313.2
2015-Aug-30 07:33N 54°49' E 013°03'1313.2
2015-Aug-30 06:34N 54°44' E 012°42'1413.8
2015-Aug-30 05:33N 54°36' E 012°22'1313.1
2015-Aug-30 04:33N 54°25' E 012°11'1313.5
2015-Aug-30 03:33N 54°24' E 011°48'1414.0
2015-Aug-30 02:34N 54°30' E 011°26'1313.5
2015-Aug-30 01:34N 54°35' E 011°04'1413.9
2015-Aug-30 00:34N 54°34' E 010°40'1313.2
2015-Aug-29 23:34N 54°30' E 010°19'10 9.6
2015-Aug-29 22:34N 54°22' E 010°09'1 1.2
2015-Aug-29 21:34N 54°22' E 010°07'7 7.2
2015-Aug-29 20:34N 54°21' E 009°55'6 5.6
2015-Aug-29 19:34N 54°21' E 009°45'7 6.7
2015-Aug-29 18:34N 54°16' E 009°37'7 7.5
2015-Aug-29 17:34N 54°11' E 009°28'8 7.5
2015-Aug-29 16:31N 54°05' E 009°19'8 8.1
2015-Aug-29 15:33N 53°57' E 009°15'5 5.1
2015-Aug-29 14:33N 53°54' E 009°09'1 1.2
2015-Aug-29 13:33N 53°53' E 009°07'1 0.9
2015-Aug-29 12:34N 53°53' E 009°05'0 0.0
2015-Aug-29 11:34N 53°53' E 009°05'0 0.0
2015-Aug-29 10:34N 53°53' E 009°05'0 0.0
2015-Aug-29 09:33N 53°53' E 009°05'0 0.1
2015-Aug-29 08:33N 53°53' E 009°05'0 0.1
2015-Aug-29 07:34N 53°53' E 009°05'0 0.0
2015-Aug-29 06:33N 53°53' E 009°05'5 4.6
2015-Aug-29 05:34N 53°51' E 008°58'8 8.5
2015-Aug-29 04:34N 53°52' E 008°44'9 9.0
2015-Aug-29 03:34N 53°58' E 008°33'1111.3
2015-Aug-29 02:34N 53°60' E 008°14'1211.8
2015-Aug-29 01:34N 53°57' E 007°54'1312.5
2015-Aug-29 00:33N 53°55' E 007°33'1312.9
2015-Aug-28 23:33N 53°52' E 007°12'1413.4
2015-Aug-28 22:32N 53°49' E 006°49'1413.8
2015-Aug-28 21:32N 53°46' E 006°26'1414.1
2015-Aug-28 20:33N 53°42' E 006°04'1414.4
2015-Aug-28 19:33N 53°37' E 005°41'1514.7
2015-Aug-28 18:34N 53°32' E 005°18'1515.2
2015-Aug-28 17:34N 53°28' E 004°53'1414.2
2015-Aug-28 16:33N 53°17' E 004°37'3215.4
2015-Aug-28 14:26N 52°49' E 004°11'1314.5
2015-Aug-28 13:33N 52°40' E 003°55'3314.3
2015-Aug-28 11:15N 52°12' E 003°28'1014.4
2015-Aug-28 10:33N 52°02' E 003°25'1313.4
2015-Aug-28 09:33N 51°49' E 003°17'1310.9
2015-Aug-28 08:21N 51°37' E 003°22'810.6
2015-Aug-28 07:33N 51°30' E 003°29'10 9.8
2015-Aug-28 06:34N 51°25' E 003°43'2 2.1
2015-Aug-28 05:34N 51°24' E 003°46'0 0.0
2015-Aug-28 04:34N 51°24' E 003°46'0 0.0
2015-Aug-28 03:34N 51°24' E 003°46'0 0.0
2015-Aug-28 02:34N 51°24' E 003°46'1 0.7
2015-Aug-28 01:34N 51°24' E 003°45'6 6.3
2015-Aug-28 00:34N 51°22' E 003°54'6 5.9
2015-Aug-27 23:34N 51°22' E 004°04'8 8.3
2015-Aug-27 22:34N 51°21' E 004°17'0 0.4
2015-Aug-27 21:33N 51°21' E 004°17'4 4.0
2015-Aug-27 20:33N 51°17' E 004°20'  
2015-Aug-25 16:31N 51°17' E 004°20'3 3.5
2015-Aug-25 15:34N 51°20' E 004°18'1 0.5
2015-Aug-25 14:34N 51°21' E 004°17'2 2.2
2015-Aug-25 13:34N 51°21' E 004°14'7 6.9
2015-Aug-25 12:34N 51°23' E 004°03'5 4.7
2015-Aug-25 11:33N 51°22' E 003°55'8 8.3
2015-Aug-25 10:34N 51°24' E 003°42'8 7.8
2015-Aug-25 09:34N 51°27' E 003°31'10 9.7
2015-Aug-25 08:34N 51°36' E 003°23'422 9.8
2015-Aug-23 13:33N 58°37' E 004°02'1110.7
2015-Aug-23 12:33N 58°47' E 004°01'  

Dump ship's entire track history